Time;durP1;ratioP1;P1;durP2;ratioP2;P2;SDS_P1;SDS_P2;PMS_P1;PMS_P2;Temp;Humidity;BMP_temperature;BMP_pressure;BME280_temperature;BME280_humidity;BME280_pressure;Samples;Min_cycle;Max_cycle;Signal;HPM_P1;HPM_P2
2024/01/24 00:02:11;;;;;;;34.10;16.55;;;;;;;-1.04;100.00;100513.81;5110898;28;20028;-72
2024/01/24 00:04:37;;;;;;;35.08;16.08;;;;;;;-0.85;100.00;100516.50;5110627;28;20167;-73
2024/01/24 00:07:03;;;;;;;57.40;20.90;;;;;;;-0.69;100.00;100519.66;5112713;28;20027;-73
2024/01/24 00:09:30;;;;;;;67.07;26.58;;;;;;;-0.55;100.00;100521.13;5111052;28;20027;-72
2024/01/24 00:11:56;;;;;;;52.08;19.85;;;;;;;-0.51;100.00;100527.84;5109751;28;20034;-74
2024/01/24 00:14:22;;;;;;;22.35;12.40;;;;;;;-0.17;100.00;100522.63;5110677;28;20027;-72
2024/01/24 00:16:47;;;;;;;22.80;12.32;;;;;;;0.11;100.00;100534.84;5111832;28;20027;-73
2024/01/24 00:19:13;;;;;;;28.83;14.75;;;;;;;0.25;100.00;100537.38;5103447;28;20085;-72
2024/01/24 00:21:38;;;;;;;20.95;12.13;;;;;;;0.31;100.00;100543.84;5104837;28;20054;-74
2024/01/24 00:24:04;;;;;;;23.55;13.23;;;;;;;0.36;100.00;100531.03;5091114;28;20420;-74
2024/01/24 00:26:30;;;;;;;26.13;13.88;;;;;;;0.44;100.00;100534.47;5094267;28;20114;-72
2024/01/24 00:28:55;;;;;;;29.83;14.80;;;;;;;0.41;100.00;100533.03;5110850;28;20060;-73
2024/01/24 00:31:21;;;;;;;26.77;14.43;;;;;;;0.53;100.00;100544.06;5110794;28;20035;-73
2024/01/24 00:33:46;;;;;;;47.35;20.15;;;;;;;0.56;100.00;100551.81;5107390;28;20027;-73
2024/01/24 00:36:11;;;;;;;27.17;14.30;;;;;;;0.46;100.00;100552.44;5111394;28;20047;-72
2024/01/24 00:38:37;;;;;;;20.70;12.10;;;;;;;0.38;100.00;100542.63;5107540;28;20099;-73
2024/01/24 00:41:02;;;;;;;21.85;13.60;;;;;;;0.53;100.00;100553.13;5111008;28;20492;-73
2024/01/24 00:43:28;;;;;;;22.48;12.65;;;;;;;0.49;100.00;100548.38;5109706;28;20667;-74
2024/01/24 00:45:54;;;;;;;18.50;10.20;;;;;;;0.43;100.00;100532.81;5101295;28;20024;-72
2024/01/24 00:48:19;;;;;;;24.85;11.23;;;;;;;0.44;100.00;100551.00;5101277;28;20409;-73
2024/01/24 00:50:45;;;;;;;16.88;9.52;;;;;;;0.32;100.00;100535.31;5110154;28;20056;-72
2024/01/24 00:53:15;;;;;;;13.50;7.88;;;;;;;0.35;100.00;100526.56;5111430;28;20023;-73
2024/01/24 00:55:41;;;;;;;17.10;9.20;;;;;;;0.42;100.00;100548.47;5109504;28;20027;-72
2024/01/24 00:58:07;;;;;;;22.67;10.18;;;;;;;0.30;100.00;100548.50;5110186;28;20458;-73
2024/01/24 01:00:33;;;;;;;13.82;9.07;;;;;;;0.33;100.00;100530.69;5112215;28;20024;-72
2024/01/24 01:02:58;;;;;;;15.93;9.50;;;;;;;0.45;100.00;100539.75;5108382;28;20031;-73
2024/01/24 01:05:24;;;;;;;16.70;9.35;;;;;;;0.38;100.00;100545.38;5111257;28;20026;-73
2024/01/24 01:07:50;;;;;;;20.08;10.98;;;;;;;0.45;100.00;100538.91;5109334;28;20022;-73
2024/01/24 01:10:15;;;;;;;20.33;11.10;;;;;;;0.50;100.00;100530.78;5109777;28;20106;-73
2024/01/24 01:12:42;;;;;;;21.55;10.70;;;;;;;0.52;100.00;100531.38;5104123;28;20036;-73
2024/01/24 01:15:08;;;;;;;21.23;13.55;;;;;;;0.47;100.00;100547.75;5110607;28;20035;-75
2024/01/24 01:17:33;;;;;;;16.05;9.70;;;;;;;0.57;100.00;100536.97;5110248;28;20033;-73
2024/01/24 01:19:59;;;;;;;19.25;10.70;;;;;;;0.52;100.00;100523.09;5109906;28;20411;-72
2024/01/24 01:22:24;;;;;;;22.00;11.55;;;;;;;0.44;100.00;100507.81;5110195;28;20046;-73
2024/01/24 01:24:49;;;;;;;17.08;10.32;;;;;;;0.50;100.00;100526.09;5109316;28;20073;-72
2024/01/24 01:27:15;;;;;;;21.58;11.02;;;;;;;0.60;100.00;100533.72;5109368;28;20030;-73
2024/01/24 01:29:40;;;;;;;16.70;10.25;;;;;;;0.48;100.00;100544.78;5109300;28;20032;-73
2024/01/24 01:32:06;;;;;;;15.48;9.75;;;;;;;0.50;100.00;100525.28;5109546;28;20019;-73
2024/01/24 01:34:31;;;;;;;21.42;9.93;;;;;;;0.46;100.00;100529.56;5108783;28;20034;-73
2024/01/24 01:36:57;;;;;;;17.77;9.40;;;;;;;0.50;100.00;100519.75;5094236;28;20445;-74
2024/01/24 01:39:23;;;;;;;17.73;9.65;;;;;;;0.77;100.00;100535.75;5090650;28;20023;-75
2024/01/24 01:41:48;;;;;;;18.05;10.77;;;;;;;0.77;100.00;100535.75;5124689;28;20023;-73
2024/01/24 01:44:15;;;;;;;14.75;9.77;;;;;;;0.75;100.00;100521.38;5108086;28;20039;-74
2024/01/24 01:46:41;;;;;;;20.83;11.60;;;;;;;0.66;100.00;100524.50;5110201;28;20027;-73
2024/01/24 01:49:07;;;;;;;19.52;10.85;;;;;;;0.66;100.00;100529.16;5111432;28;20027;-72
2024/01/24 01:51:33;;;;;;;17.98;9.77;;;;;;;0.72;100.00;100527.34;5109450;28;20496;-73
2024/01/24 01:53:59;;;;;;;24.10;11.02;;;;;;;0.63;100.00;100527.75;5095789;28;20028;-72
2024/01/24 01:56:25;;;;;;;18.95;11.82;;;;;;;0.57;100.00;100514.94;5104748;28;20027;-73
2024/01/24 01:58:52;;;;;;;22.33;11.00;;;;;;;0.62;100.00;100526.09;5109392;28;20503;-73
2024/01/24 02:01:18;;;;;;;18.63;11.05;;;;;;;0.65;100.00;100522.00;5110084;28;20455;-73
2024/01/24 02:03:45;;;;;;;20.02;11.30;;;;;;;0.63;100.00;100524.16;5110627;28;20408;-73
2024/01/24 02:06:11;;;;;;;19.52;11.40;;;;;;;0.58;100.00;100521.31;5110714;28;20027;-73
2024/01/24 02:08:36;;;;;;;22.90;12.88;;;;;;;0.53;100.00;100520.09;5105967;28;20050;-72
2024/01/24 02:11:03;;;;;;;19.65;11.57;;;;;;;0.55;100.00;100517.09;5109521;28;20069;-73
2024/01/24 02:13:31;;;;;;;24.77;13.18;;;;;;;0.63;100.00;100522.25;5110532;28;20042;-74
2024/01/24 02:16:03;;;;;;;20.65;12.40;;;;;;;0.49;100.00;100516.16;5109684;28;20476;-72
2024/01/24 02:18:29;;;;;;;17.33;10.00;;;;;;;0.46;100.00;100516.66;5103360;28;20031;-72
2024/01/24 02:20:55;;;;;;;20.83;13.15;;;;;;;0.44;100.00;100520.72;5099848;28;20092;-72
2024/01/24 02:23:25;;;;;;;15.35;10.13;;;;;;;0.44;100.00;100510.56;5109549;28;20043;-73
2024/01/24 02:25:51;;;;;;;;;;;;;;;0.55;100.00;100514.34;5113841;28;20118;-72
2024/01/24 02:28:17;;;;;;;16.95;10.20;;;;;;;0.48;100.00;100510.88;5113640;28;20314;-72
2024/01/24 02:30:44;;;;;;;21.13;10.95;;;;;;;0.46;100.00;100508.41;5112797;28;20031;-73
2024/01/24 02:33:10;;;;;;;20.30;11.88;;;;;;;0.61;100.00;100531.81;5112955;28;20111;-73
2024/01/24 02:35:35;;;;;;;20.60;11.25;;;;;;;0.63;100.00;100524.16;5107419;28;20031;-72
2024/01/24 02:38:01;;;;;;;15.82;9.82;;;;;;;0.54;100.00;100520.94;5106660;28;20031;-79
2024/01/24 02:40:27;;;;;;;21.20;11.18;;;;;;;0.53;100.00;100511.84;5114953;28;20027;-79
2024/01/24 02:42:55;;;;;;;23.27;12.40;;;;;;;0.92;100.00;100504.94;5112285;28;20034;-80
2024/01/24 02:45:21;;;;;;;20.15;9.98;;;;;;;1.42;100.00;100514.38;5113116;28;20048;-80
2024/01/24 02:47:46;;;;;;;18.92;11.10;;;;;;;1.17;100.00;100504.56;5114686;28;20020;-79
2024/01/24 02:50:12;;;;;;;17.77;9.80;;;;;;;1.07;100.00;100501.59;5103313;28;20149;-79
2024/01/24 02:52:38;;;;;;;23.95;11.70;;;;;;;0.95;100.00;100516.28;5113293;28;20426;-79
2024/01/24 02:55:07;;;;;;;21.55;11.38;;;;;;;0.88;100.00;100521.09;5113152;28;20046;-79
2024/01/24 02:57:32;;;;;;;22.67;12.52;;;;;;;0.88;100.00;100529.38;5111405;28;20027;-79
2024/01/24 02:59:58;;;;;;;20.23;11.50;;;;;;;0.83;100.00;100515.47;5111902;28;20079;-78
2024/01/24 03:02:23;;;;;;;26.25;14.85;;;;;;;0.82;100.00;100522.06;5112475;28;20034;-79
2024/01/24 03:04:49;;;;;;;20.58;11.88;;;;;;;0.83;100.00;100527.34;5099127;28;20519;-79
2024/01/24 03:07:14;;;;;;;16.13;8.60;;;;;;;0.93;100.00;100525.88;5106535;28;20016;-79
2024/01/24 03:09:40;;;;;;;16.52;9.40;;;;;;;0.95;100.00;100515.44;5109784;28;20020;-78
2024/01/24 03:12:06;;;;;;;17.95;9.63;;;;;;;1.02;100.00;100515.31;5111888;28;20495;-78
2024/01/24 03:14:31;;;;;;;14.95;9.02;;;;;;;1.00;100.00;100515.53;5112660;27;20514;-78
2024/01/24 03:16:56;;;;;;;17.55;9.75;;;;;;;0.90;100.00;100521.69;5100467;28;20028;-78
2024/01/24 03:19:22;;;;;;;14.77;9.48;;;;;;;0.91;100.00;100509.59;5097535;28;20041;-78
2024/01/24 03:21:48;;;;;;;14.80;8.02;;;;;;;1.07;100.00;100524.50;5112102;28;20060;-78
2024/01/24 03:24:13;;;;;;;14.18;9.07;;;;;;;1.18;100.00;100522.78;5112413;28;20032;-78
2024/01/24 03:26:39;;;;;;;14.10;9.52;;;;;;;1.29;100.00;100525.72;5111973;28;20039;-78
2024/01/24 03:29:04;;;;;;;11.30;8.10;;;;;;;1.30;100.00;100521.88;5111936;28;20106;-79
2024/01/24 03:31:30;;;;;;;16.00;8.90;;;;;;;1.36;100.00;100532.75;5105842;28;20499;-78
2024/01/24 03:33:55;;;;;;;16.80;8.95;;;;;;;1.25;100.00;100534.50;5113509;28;20081;-77
2024/01/24 03:36:21;;;;;;;13.82;9.23;;;;;;;1.23;100.00;100527.53;5107279;28;20016;-78
2024/01/24 03:38:47;;;;;;;17.27;8.95;;;;;;;1.37;100.00;100528.09;5094896;28;20032;-78
2024/01/24 03:41:12;;;;;;;17.13;8.40;;;;;;;1.31;100.00;100535.44;5112734;28;20024;-78
2024/01/24 03:43:41;;;;;;;16.67;8.27;;;;;;;1.38;100.00;100524.25;5111915;28;20019;-78
2024/01/24 03:46:06;;;;;;;14.30;7.85;;;;;;;1.38;100.00;100533.34;5103982;28;20058;-78
2024/01/24 03:48:32;;;;;;;14.43;8.43;;;;;;;1.34;100.00;100517.56;5113048;28;20024;-72
2024/01/24 03:50:58;;;;;;;15.07;8.27;;;;;;;1.37;100.00;100522.59;5111422;28;20034;-73
2024/01/24 03:53:23;;;;;;;16.42;8.00;;;;;;;1.40;100.00;100522.06;5112226;28;20031;-72
2024/01/24 03:55:49;;;;;;;18.05;9.77;;;;;;;1.50;100.00;100533.28;5111156;28;20110;-72
2024/01/24 03:58:14;;;;;;;15.70;7.85;;;;;;;1.44;100.00;100523.25;5110800;28;20031;-73
2024/01/24 04:00:40;;;;;;;13.63;8.02;;;;;;;1.49;100.00;100525.25;5111367;28;20519;-73
2024/01/24 04:03:05;;;;;;;17.63;10.30;;;;;;;1.53;100.00;100531.97;5111734;28;20036;-74
2024/01/24 04:05:31;;;;;;;19.65;10.30;;;;;;;1.52;100.00;100536.63;5113097;28;20016;-73
2024/01/24 04:07:57;;;;;;;16.80;8.88;;;;;;;1.58;100.00;100545.00;5111687;28;20114;-72
2024/01/24 04:10:22;;;;;;;20.67;10.70;;;;;;;1.45;100.00;100538.72;5111691;28;20583;-72
2024/01/24 04:12:48;;;;;;;14.63;8.13;;;;;;;1.46;100.00;100548.66;5106739;28;20089;-73
2024/01/24 04:15:14;;;;;;;16.45;9.05;;;;;;;1.47;100.00;100555.00;5109373;28;20474;-73
2024/01/24 04:17:39;;;;;;;17.00;8.52;;;;;;;1.48;100.00;100554.78;5112226;27;20082;-73
2024/01/24 04:20:05;;;;;;;14.32;9.13;;;;;;;1.56;100.00;100559.03;5110167;28;20024;-72
2024/01/24 04:22:32;;;;;;;12.93;8.63;;;;;;;1.54;100.00;100551.00;5112563;28;20088;-72
2024/01/24 04:24:57;;;;;;;18.73;9.18;;;;;;;1.60;100.00;100564.91;5110839;28;20126;-73
2024/01/24 04:27:23;;;;;;;13.25;8.02;;;;;;;1.64;100.00;100566.06;5103685;28;20060;-72
2024/01/24 04:29:48;;;;;;;13.80;8.15;;;;;;;1.85;100.00;100571.97;5105373;28;20433;-73
2024/01/24 04:32:14;;;;;;;11.55;7.55;;;;;;;1.88;100.00;100565.94;5111340;28;20024;-73
2024/01/24 04:34:39;;;;;;;15.13;8.13;;;;;;;1.95;100.00;100561.91;5093632;28;20027;-73
2024/01/24 04:37:05;;;;;;;19.25;9.35;;;;;;;1.90;100.00;100561.84;5105062;28;20039;-72
2024/01/24 04:39:30;;;;;;;17.17;8.07;;;;;;;1.87;100.00;100569.78;5094263;28;20035;-72
2024/01/24 04:41:56;;;;;;;13.25;8.65;;;;;;;1.77;100.00;100565.75;5110386;28;20088;-72
2024/01/24 04:44:21;;;;;;;13.93;8.63;;;;;;;1.66;100.00;100559.22;5110703;28;20537;-72
2024/01/24 04:46:47;;;;;;;17.52;9.82;;;;;;;1.72;100.00;100567.59;5105641;28;20024;-73
2024/01/24 04:49:12;;;;;;;19.42;9.30;;;;;;;1.69;100.00;100571.69;5090771;28;20519;-72
2024/01/24 04:51:38;;;;;;;16.80;9.00;;;;;;;1.71;100.00;100571.44;5111403;28;20453;-72
2024/01/24 04:54:04;;;;;;;14.60;9.27;;;;;;;1.60;100.00;100576.75;5102687;28;20031;-72
2024/01/24 04:56:29;;;;;;;16.83;8.65;;;;;;;1.49;100.00;100575.75;5109927;28;20532;-73
2024/01/24 04:58:55;;;;;;;15.18;8.57;;;;;;;1.48;100.00;100568.56;5112179;28;20072;-77
2024/01/24 05:01:21;;;;;;;13.30;8.10;;;;;;;1.59;100.00;100582.53;5100126;28;20127;-77
2024/01/24 05:03:46;;;;;;;11.52;7.55;;;;;;;1.59;100.00;100575.09;5104991;28;20035;-77
2024/01/24 05:06:12;;;;;;;16.75;9.32;;;;;;;1.53;100.00;100582.44;5109170;28;20028;-76
2024/01/24 05:08:38;;;;;;;16.02;10.65;;;;;;;1.51;100.00;100578.28;5105977;28;20023;-75
2024/01/24 05:11:04;;;;;;;16.38;10.45;;;;;;;1.58;100.00;100583.63;5110940;28;20077;-76
2024/01/24 05:13:30;;;;;;;14.65;10.07;;;;;;;1.58;100.00;100580.88;5108894;28;20517;-77
2024/01/24 05:15:56;;;;;;;14.52;9.27;;;;;;;1.53;100.00;100576.91;5110608;28;20035;-76
2024/01/24 05:18:22;;;;;;;14.85;9.40;;;;;;;1.49;100.00;100581.25;5109601;28;20027;-76
2024/01/24 05:20:47;;;;;;;13.63;8.60;;;;;;;1.69;100.00;100591.00;5094771;28;20036;-77
2024/01/24 05:23:13;;;;;;;14.52;8.10;;;;;;;1.65;100.00;100584.28;5089649;28;20044;-75
2024/01/24 05:25:39;;;;;;;14.15;9.40;;;;;;;1.57;100.00;100584.69;5126229;27;20406;-76
2024/01/24 05:28:08;;;;;;;17.27;9.25;;;;;;;1.67;100.00;100598.66;5108841;28;20055;-77
2024/01/24 05:30:33;;;;;;;16.75;9.30;;;;;;;1.56;100.00;100591.28;5107289;28;20107;-76
2024/01/24 05:32:59;;;;;;;13.20;7.88;;;;;;;1.70;100.00;100603.72;5111183;28;20128;-76
2024/01/24 05:35:25;;;;;;;15.48;9.02;;;;;;;1.60;100.00;100614.56;5110014;28;20035;-76
2024/01/24 05:37:50;;;;;;;16.10;9.65;;;;;;;1.60;100.00;100603.53;5110103;28;20027;-76
2024/01/24 05:40:17;;;;;;;18.17;9.52;;;;;;;1.53;100.00;100610.00;5110220;28;20027;-76
2024/01/24 05:42:42;;;;;;;16.92;10.18;;;;;;;1.68;99.19;100612.22;5102527;28;20493;-76
2024/01/24 05:45:09;;;;;;;16.63;9.43;;;;;;;1.64;99.27;100615.72;5107028;28;20030;-76
2024/01/24 05:47:35;;;;;;;19.60;9.52;;;;;;;1.53;99.44;100610.00;5109441;28;20031;-76
2024/01/24 05:50:00;;;;;;;20.38;9.82;;;;;;;1.53;99.29;100607.25;5108639;28;20080;-76
2024/01/24 05:52:26;;;;;;;24.80;12.93;;;;;;;1.56;98.73;100608.69;5108739;28;20033;-76
2024/01/24 05:54:51;;;;;;;19.33;12.13;;;;;;;1.58;98.93;100612.03;5108821;28;20070;-75
2024/01/24 05:57:17;;;;;;;18.50;11.48;;;;;;;1.58;99.05;100611.22;5101719;28;20034;-75
2024/01/24 05:59:42;;;;;;;22.65;11.68;;;;;;;1.57;98.81;100615.03;5111684;28;20411;-76
2024/01/24 06:02:08;;;;;;;25.88;10.02;;;;;;;1.64;98.34;100618.47;5113140;28;20019;-76
2024/01/24 06:04:33;;;;;;;15.48;8.75;;;;;;;1.63;98.07;100622.31;5113527;28;20061;-76
2024/01/24 06:07:01;;;;;;;19.65;9.43;;;;;;;1.64;98.11;100627.59;5113467;28;20051;-76
2024/01/24 06:09:30;;;;;;;16.35;9.82;;;;;;;1.64;97.88;100621.22;5113937;28;20029;-76
2024/01/24 06:11:56;;;;;;;21.48;10.40;;;;;;;1.57;98.29;100632.41;5113333;28;20038;-76
2024/01/24 06:14:21;;;;;;;20.55;10.88;;;;;;;1.68;97.68;100633.44;5113528;28;20012;-76
2024/01/24 06:16:47;;;;;;;31.67;15.63;;;;;;;1.65;97.84;100637.56;5114444;28;20019;-76
2024/01/24 06:19:12;;;;;;;31.42;15.32;;;;;;;1.66;97.15;100624.59;5112683;28;20028;-74
2024/01/24 06:21:38;;;;;;;22.10;11.70;;;;;;;1.74;96.89;100621.44;5114120;28;20457;-76
2024/01/24 06:24:05;;;;;;;29.40;14.50;;;;;;;1.85;96.57;100633.47;5109525;28;20431;-73
2024/01/24 06:26:31;;;;;;;31.15;11.70;;;;;;;1.90;96.17;100638.25;5102949;28;20114;-75
2024/01/24 06:28:57;;;;;;;23.20;12.80;;;;;;;1.85;96.31;100639.00;5110454;28;20122;-73
2024/01/24 06:31:22;;;;;;;21.35;13.50;;;;;;;1.85;95.88;100646.47;5103463;28;20056;-73
2024/01/24 06:33:48;;;;;;;15.07;9.57;;;;;;;1.96;95.42;100646.38;5105390;28;20487;-75
2024/01/24 06:36:13;;;;;;;15.80;9.68;;;;;;;1.94;95.85;100643.03;5103549;28;20040;-78
2024/01/24 06:38:39;;;;;;;16.15;9.70;;;;;;;1.91;96.24;100637.16;5106032;28;20472;-72
2024/01/24 06:41:04;;;;;;;18.55;10.25;;;;;;;2.03;95.56;100642.63;5109706;28;20638;-73
2024/01/24 06:43:30;;;;;;;18.42;10.55;;;;;;;2.01;95.17;100626.31;5110273;28;20080;-79
2024/01/24 06:45:55;;;;;;;17.73;11.27;;;;;;;2.08;95.57;100635.28;5107969;28;20550;-78
2024/01/24 06:48:21;;;;;;;19.38;12.43;;;;;;;2.19;95.01;100632.69;5111490;28;20122;-77
2024/01/24 06:50:46;;;;;;;18.40;10.88;;;;;;;2.27;94.47;100628.69;5110427;28;20032;-76
2024/01/24 06:53:14;;;;;;;24.67;12.32;;;;;;;2.32;93.73;100617.72;5105649;28;20027;-72
2024/01/24 06:55:44;;;;;;;25.52;13.30;;;;;;;2.43;92.48;100627.81;5103105;28;20480;-73
2024/01/24 06:58:09;;;;;;;26.73;13.15;;;;;;;2.61;93.03;100635.00;5102017;28;20055;-78
2024/01/24 07:00:35;;;;;;;19.38;10.68;;;;;;;2.69;91.53;100636.50;5101312;28;20590;-75
2024/01/24 07:03:01;;;;;;;18.38;11.13;;;;;;;2.77;90.94;100638.00;5094623;28;20027;-78
2024/01/24 07:05:27;;;;;;;19.80;10.35;;;;;;;2.82;91.13;100643.59;5120311;27;20031;-75
2024/01/24 07:07:52;;;;;;;22.83;9.57;;;;;;;2.87;90.72;100638.13;5103998;28;20027;-74
2024/01/24 07:10:18;;;;;;;21.23;11.20;;;;;;;3.05;89.77;100638.94;5109455;28;20027;-78
2024/01/24 07:12:46;;;;;;;20.90;11.65;;;;;;;3.01;89.43;100646.06;5103678;28;20027;-74
2024/01/24 07:15:12;;;;;;;20.35;11.68;;;;;;;2.96;89.78;100644.09;5108305;28;20027;-80
2024/01/24 07:17:38;;;;;;;52.67;13.60;;;;;;;3.01;89.45;100646.06;5108811;28;20080;-72
2024/01/24 07:20:04;;;;;;;26.35;12.90;;;;;;;3.09;89.46;100645.63;5107067;28;20042;-74
2024/01/24 07:22:29;;;;;;;27.05;13.77;;;;;;;3.18;88.54;100635.81;5107464;28;20044;-72
2024/01/24 07:24:55;;;;;;;23.70;10.10;;;;;;;3.20;87.48;100635.56;5109476;28;20115;-74
2024/01/24 07:27:20;;;;;;;15.32;9.20;;;;;;;3.22;87.80;100647.19;5110901;28;20534;-72
2024/01/24 07:29:46;;;;;;;17.77;9.98;;;;;;;3.32;87.82;100643.72;5105475;28;20027;-73
2024/01/24 07:32:11;;;;;;;19.73;10.07;;;;;;;3.36;86.71;100644.84;5101402;28;20028;-74
2024/01/24 07:34:38;;;;;;;20.15;11.60;;;;;;;3.49;85.58;100638.91;5108524;28;20027;-74
2024/01/24 07:37:05;;;;;;;14.98;9.23;;;;;;;3.60;85.77;100656.50;5109697;28;20034;-71
2024/01/24 07:39:30;;;;;;;18.55;9.38;;;;;;;3.55;85.41;100647.31;5102258;28;20035;-69
2024/01/24 07:41:56;;;;;;;19.30;13.75;;;;;;;3.75;84.39;100647.53;5112382;28;20518;-74
2024/01/24 07:44:22;;;;;;;19.85;10.73;;;;;;;3.64;84.19;100645.75;5110794;28;20028;-71
2024/01/24 07:46:47;;;;;;;14.68;9.25;;;;;;;3.61;84.90;100636.03;5109916;28;20034;-75
2024/01/24 07:49:13;;;;;;;19.25;10.38;;;;;;;3.84;84.50;100653.44;5107407;28;20027;-71
2024/01/24 07:51:41;;;;;;;17.15;9.88;;;;;;;3.76;84.73;100660.28;5106345;28;20031;-76
2024/01/24 07:54:07;;;;;;;15.10;9.27;;;;;;;3.85;83.78;100657.03;5099831;28;20561;-73
2024/01/24 07:56:32;;;;;;;15.13;8.93;;;;;;;3.78;83.92;100666.38;5110689;28;20027;-75
2024/01/24 07:58:58;;;;;;;19.25;11.60;;;;;;;3.82;83.64;100663.94;5106634;28;20027;-74
2024/01/24 08:01:23;;;;;;;21.35;11.15;;;;;;;3.84;83.98;100658.13;5093688;28;20031;-74
2024/01/24 08:03:49;;;;;;;17.20;10.73;;;;;;;4.03;84.20;100658.59;5106528;28;20476;-75
2024/01/24 08:06:14;;;;;;;23.38;11.68;;;;;;;3.95;84.06;100662.66;5116793;27;20024;-75
2024/01/24 08:08:40;;;;;;;20.30;12.10;;;;;;;3.96;83.61;100669.88;5089933;28;20058;-74
2024/01/24 08:11:06;;;;;;;25.67;12.45;;;;;;;4.12;83.34;100667.28;5101036;28;20034;-72
2024/01/24 08:13:32;;;;;;;17.58;11.13;;;;;;;4.14;83.13;100668.66;5099193;28;20039;-72
2024/01/24 08:15:58;;;;;;;22.40;12.10;;;;;;;4.21;83.85;100676.75;5106019;28;20498;-74
2024/01/24 08:18:24;;;;;;;19.90;10.52;;;;;;;4.19;83.33;100671.50;5107393;28;20045;-71
2024/01/24 08:20:52;;;;;;;21.42;12.07;;;;;;;4.28;82.86;100677.38;5105540;28;20028;-72
2024/01/24 08:23:18;;;;;;;19.75;11.52;;;;;;;4.28;82.36;100676.53;5098088;28;20152;-73
2024/01/24 08:25:44;;;;;;;17.23;10.52;;;;;;;4.46;81.50;100667.00;5101913;28;20028;-74
2024/01/24 08:28:09;;;;;;;15.93;9.85;;;;;;;4.37;81.83;100676.91;5094694;28;20028;-74
2024/01/24 08:30:35;;;;;;;18.50;11.50;;;;;;;4.47;80.86;100675.06;5101858;28;20542;-74
2024/01/24 08:33:00;;;;;;;18.40;10.73;;;;;;;4.46;81.29;100667.00;5103806;28;20057;-77
2024/01/24 08:35:27;;;;;;;17.40;10.15;;;;;;;4.59;80.56;100672.13;5101497;28;20041;-74
2024/01/24 08:37:52;;;;;;;16.98;11.07;;;;;;;4.71;80.14;100688.53;5099534;28;20020;-73
2024/01/24 08:40:19;;;;;;;23.42;11.52;;;;;;;4.58;80.69;100686.22;5104704;28;20023;-73
2024/01/24 08:42:44;;;;;;;25.23;11.52;;;;;;;4.58;80.44;100691.78;5103051;28;20096;-73
2024/01/24 08:45:10;;;;;;;23.48;12.70;;;;;;;4.84;79.67;100689.19;5098020;28;20021;-74
2024/01/24 08:47:36;;;;;;;23.95;11.43;;;;;;;4.83;79.66;100688.38;5105104;28;20063;-73
2024/01/24 08:50:04;;;;;;;25.35;13.27;;;;;;;4.82;80.25;100689.44;5102861;28;20082;-73
2024/01/24 08:52:31;;;;;;;24.40;12.65;;;;;;;4.87;79.87;100695.03;5104523;28;20050;-72
2024/01/24 08:54:57;;;;;;;24.05;13.55;;;;;;;4.75;80.93;100689.66;5098908;28;20032;-71
2024/01/24 08:57:23;;;;;;;24.33;12.07;;;;;;;4.91;79.90;100696.16;5099404;28;20089;-72
2024/01/24 08:59:49;;;;;;;23.00;13.05;;;;;;;5.11;79.05;100689.09;5105984;28;20057;-71
2024/01/24 09:02:14;;;;;;;22.17;11.63;;;;;;;5.06;79.65;100695.44;5104307;28;20027;-72
2024/01/24 09:04:40;;;;;;;22.48;14.35;;;;;;;5.10;78.87;100690.19;5106017;28;20027;-68
2024/01/24 09:07:05;;;;;;;24.73;14.57;;;;;;;5.06;79.01;100691.81;5106511;28;20032;-69
2024/01/24 09:09:33;;;;;;;44.38;22.95;;;;;;;5.03;79.51;100692.34;5106012;28;20484;-69
2024/01/24 09:11:59;;;;;;;38.00;21.05;;;;;;;5.07;80.06;100687.97;5107898;28;20028;-69
2024/01/24 09:14:25;;;;;;;29.98;17.10;;;;;;;5.00;79.42;100667.94;5107501;28;20029;-69
2024/01/24 09:16:51;;;;;;;32.65;16.83;;;;;;;5.00;78.92;100670.72;5108206;28;20023;-69
2024/01/24 09:19:16;;;;;;;29.02;15.60;;;;;;;4.99;80.08;100657.94;5106136;28;20034;-68
2024/01/24 09:21:42;;;;;;;24.88;15.30;;;;;;;5.00;80.19;100665.16;5107735;28;20106;-69
2024/01/24 09:24:07;;;;;;;25.20;13.98;;;;;;;5.10;79.54;100653.28;5104848;28;20036;-69
2024/01/24 09:26:33;;;;;;;23.60;11.90;;;;;;;5.02;79.71;100655.47;5101484;28;20047;-69
2024/01/24 09:28:58;;;;;;;27.23;13.77;;;;;;;5.06;79.39;100647.44;5099681;28;20098;-69
2024/01/24 09:31:24;;;;;;;23.75;13.77;;;;;;;5.23;79.70;100647.25;5091515;28;20024;-69
2024/01/24 09:33:50;;;;;;;24.52;12.85;;;;;;;5.10;79.97;100648.59;5105388;28;20149;-69
2024/01/24 09:36:15;;;;;;;24.27;13.55;;;;;;;5.40;80.17;100647.03;5104865;28;20031;-69
2024/01/24 09:38:44;;;;;;;22.40;13.90;;;;;;;5.31;78.85;100643.16;5106904;28;20024;-68
2024/01/24 09:41:17;;;;;;;29.95;15.32;;;;;;;5.24;79.72;100645.31;5095835;28;20404;-68
2024/01/24 09:43:43;;;;;;;39.90;19.02;;;;;;;5.34;79.58;100650.91;5091045;28;20063;-68
2024/01/24 09:46:13;;;;;;;39.92;21.90;;;;;;;5.37;79.03;100647.59;5098601;28;20124;-68
2024/01/24 09:48:41;;;;;;;31.35;16.98;;;;;;;5.29;79.72;100650.88;5109703;28;20031;-69
2024/01/24 09:51:08;;;;;;;28.17;17.23;;;;;;;5.36;79.97;100657.03;5109034;28;20034;-68
2024/01/24 09:53:36;;;;;;;26.30;15.70;;;;;;;5.43;79.76;100640.97;5105111;28;20504;-69
2024/01/24 09:56:02;;;;;;;24.25;14.70;;;;;;;5.38;79.08;100638.16;5093256;28;20020;-69
2024/01/24 09:58:28;;;;;;;25.02;15.07;;;;;;;5.46;79.25;100636.78;5111135;28;20020;-68
2024/01/24 10:00:54;;;;;;;19.73;13.02;;;;;;;5.60;79.37;100629.63;5109186;28;20060;-69
2024/01/24 10:03:20;;;;;;;27.98;16.40;;;;;;;5.59;79.00;100624.38;5110665;28;20084;-68
2024/01/24 10:05:49;;;;;;;31.35;16.02;;;;;;;5.68;78.62;100616.31;5104073;28;20560;-69
2024/01/24 10:08:15;;;;;;;32.78;16.25;;;;;;;5.85;78.73;100614.16;5097913;28;20322;-69
2024/01/24 10:10:42;;;;;;;22.13;12.43;;;;;;;5.68;77.46;100617.19;5108085;28;20027;-69
2024/01/24 10:13:08;;;;;;;20.00;12.82;;;;;;;5.59;79.66;100602.16;5109342;28;20031;-69
2024/01/24 10:15:35;;;;;;;30.48;17.40;;;;;;;5.58;78.13;100592.16;5110721;28;20019;-69
2024/01/24 10:18:01;;;;;;;36.25;17.88;;;;;;;5.44;79.17;100594.63;5111119;28;20107;-69
2024/01/24 10:20:26;;;;;;;31.52;16.00;;;;;;;5.43;80.05;100593.78;5110953;28;20069;-69
2024/01/24 10:22:53;;;;;;;23.27;13.70;;;;;;;5.49;79.38;100578.00;5109544;28;20048;-69
2024/01/24 10:25:19;;;;;;;27.10;13.20;;;;;;;5.55;79.04;100578.81;5110254;28;20057;-69
2024/01/24 10:27:44;;;;;;;28.35;12.40;;;;;;;5.72;78.31;100564.69;5109703;28;20105;-69
2024/01/24 10:30:11;;;;;;;16.48;10.57;;;;;;;5.69;78.67;100565.25;5110876;28;20031;-69
2024/01/24 10:32:37;;;;;;;20.60;10.55;;;;;;;5.69;78.48;100565.25;5110929;28;20028;-69
2024/01/24 10:35:04;;;;;;;20.23;10.88;;;;;;;5.69;78.28;100566.09;5098118;28;20093;-70
2024/01/24 10:37:31;;;;;;;18.25;7.75;;;;;;;5.65;77.78;100559.41;5089179;28;20067;-69
2024/01/24 10:40:03;;;;;;;13.93;9.02;;;;;;;5.67;78.14;100561.91;5090373;28;20023;-69
2024/01/24 10:42:35;;;;;;;18.92;9.05;;;;;;;5.79;77.67;100558.88;5094720;28;20046;-70
2024/01/24 10:45:04;;;;;;;17.27;9.95;;;;;;;5.78;77.93;100548.88;5095540;28;20019;-69
2024/01/24 10:47:30;;;;;;;19.85;11.65;;;;;;;5.89;77.15;100553.31;5113421;28;20115;-70
2024/01/24 10:49:56;;;;;;;21.65;13.43;;;;;;;5.88;77.21;100548.88;5100002;28;20472;-70
2024/01/24 10:52:25;;;;;;;28.67;14.60;;;;;;;5.87;76.73;100539.72;5100674;28;20019;-70
2024/01/24 10:54:53;;;;;;;28.85;15.77;;;;;;;6.13;76.48;100541.69;5112556;28;20036;-69
2024/01/24 10:57:19;;;;;;;32.85;19.33;;;;;;;6.18;75.84;100541.69;5114233;28;20034;-69
2024/01/24 10:59:45;;;;;;;45.78;24.63;;;;;;;6.00;75.97;100526.41;5114176;28;20122;-71
2024/01/24 11:02:10;;;;;;;43.28;24.40;;;;;;;5.99;76.11;100528.34;5107559;28;20412;-72
2024/01/24 11:04:38;;;;;;;37.65;20.65;;;;;;;6.14;76.30;100529.47;5092317;28;20134;-71
2024/01/24 11:07:13;;;;;;;30.10;15.68;;;;;;;6.31;76.29;100524.44;5092286;28;20028;-71
2024/01/24 11:09:57;;;;;;;32.92;18.60;;;;;;;6.36;76.19;100523.63;5096672;28;20034;-71
2024/01/24 11:12:23;;;;;;;27.02;14.57;;;;;;;6.34;75.71;100505.53;5106126;28;20051;-72